Weather at Mc Afee Stol Patch STOLport

Public forecast

Using degrees Fahrenheit for public forecast. Weather courtesy of forecast.io.

Closest aviation weather report (METAR) to Mc Afee Stol Patch STOLport

Closest report is Tri-Cities Regional TN/VA Airport, 6.2 nm (11.5 km) N. Retrieved 2021/06/13 10:11 UTC (23 minutes ago):

KTRI 131011Z 00000KT 1/2SM BR BKN002 BKN040 OVC100 18/17 A2993

Closest aviation forecast (TAF) to Mc Afee Stol Patch STOLport

Closest forecast is Tri-Cities Regional TN/VA Airport, 6.2 nm (11.5 km) N. Retrieved 2021/06/13 06:27 UTC (4 hours ago):

TAF KTRI 130524Z 1306/1406 VRB03KT P6SM SCT250 FM130900 00000KT 3SM BR BKN035 FM131000 00000KT 1SM BR BKN010 FM131200 00000KT 2SM BR BKN006 FM131400 00000KT P6SM SCT200 PROB30 1402/1405 6SM TSRA BR BKN050CB